KPDX/PDX METAR and TAF weather

Enter ICAO airport designator
Station Type Date Time Source
KPDX METAR 2022/05/23 13:53 UTC NOAA

KPDX 231353Z 02003KT 10SM FEW070 BKN090 13/07 A3021 RMK AO2 SLP228 T01330072


Station Type Date Time Source
KPDX Decoded METAR 2022/05/23 13:53 UTC NOAA

PORTLAND INTERNATIONAL AIRPORT, OR, United States (KPDX) 45-35N 122-36W 7M
May 23, 2022 - 09:53 AM EDT / 2022.05.23 1353 UTC
Wind: from the NNE (020 degrees) at 3 MPH (3 KT):0
Visibility: 10 mile(s):0
Sky conditions: mostly cloudy
Temperature: 55.9 F (13.3 C)
Dew Point: 45.0 F (7.2 C)
Relative Humidity: 66%
Pressure (altimeter): 30.21 in. Hg (1023 hPa)
ob: KPDX 231353Z 02003KT 10SM FEW070 BKN090 13/07 A3021 RMK AO2 SLP228 T01330072
cycle: 14

Station Type Date Time Source
KPDX TAF 2022/05/23 14:24 UTC NOAA

TAF KPDX 231423Z 2314/2412 VRB03KT P6SM SCT060 OVC100
FM232100 31008KT P6SM BKN050
FM240500 32005KT P6SM BKN250
FM241100 34002KT P6SM FEW025 BKN050

Example: see airport list